Time;durP1;ratioP1;P1;durP2;ratioP2;P2;SDS_P1;SDS_P2;PMS_P1;PMS_P2;Temp;Humidity;BMP_temperature;BMP_pressure;BME280_temperature;BME280_humidity;BME280_pressure;Samples;Min_cycle;Max_cycle;Signal;HPM_P1;HPM_P2
2021/10/02 00:45:00;;;;;;;9.00;6.15;;;;;;;11.32;73.85;96960.33;1795047;80;20962;-83
2021/10/02 00:47:27;;;;;;;7.12;5.50;;;;;;;11.22;73.83;96960.21;1785178;80;20999;-83
2021/10/02 00:49:53;;;;;;;6.70;5.35;;;;;;;11.12;74.44;96965.16;1767198;79;20974;-83
2021/10/02 00:52:20;;;;;;;7.70;6.03;;;;;;;11.06;74.81;96958.05;1766375;80;20935;-83
2021/10/02 00:54:46;;;;;;;7.05;6.35;;;;;;;10.96;74.66;96960.53;1797943;79;20941;-83
2021/10/02 00:57:12;;;;;;;9.38;6.55;;;;;;;10.86;74.97;96950.81;1786756;79;21310;-83
2021/10/02 00:59:38;;;;;;;8.95;5.92;;;;;;;10.80;75.38;96945.32;1799285;79;20928;-83
2021/10/02 01:02:27;;;;;;;7.70;5.55;;;;;;;10.69;76.20;96935.28;1798950;79;21001;-83
2021/10/02 01:05:20;;;;;;;7.97;5.28;;;;;;;10.63;76.56;96935.97;1776111;79;21429;-83
2021/10/02 01:08:19;;;;;;;8.75;5.55;;;;;;;10.58;76.76;96930.47;1796052;79;21042;-83
2021/10/02 01:11:08;;;;;;;8.90;4.90;;;;;;;10.56;76.77;96927.20;1802526;79;21018;-83
2021/10/02 01:14:07;;;;;;;9.45;5.40;;;;;;;10.51;76.71;96923.02;1814676;78;20972;-83
2021/10/02 01:16:41;;;;;;;7.40;5.08;;;;;;;10.47;77.26;96925.14;1815787;78;21064;-81
2021/10/02 01:19:33;;;;;;;6.65;5.10;;;;;;;10.44;77.36;96924.19;1771908;80;21342;-81
2021/10/02 01:22:28;;;;;;;5.62;4.42;;;;;;;10.47;77.61;96925.63;1795412;78;20951;-81
2021/10/02 01:25:32;;;;;;;5.37;4.80;;;;;;;10.57;77.63;96921.03;1817284;78;20957;-81
2021/10/02 01:28:03;;;;;;;6.85;5.30;;;;;;;10.64;78.12;96926.38;1811346;78;21000;-81
2021/10/02 01:33:27;;;;;;;5.25;4.45;;;;;;;10.60;78.03;96922.51;1804803;77;20969;-81
2021/10/02 01:35:56;;;;;;;6.55;5.30;;;;;;;10.62;77.65;96930.94;1802025;78;21015;-81
2021/10/02 01:49:17;;;;;;;5.62;4.47;;;;;;;10.53;78.25;96923.65;1827562;78;21116;-81
2021/10/02 01:51:43;;;;;;;6.90;5.80;;;;;;;10.49;78.17;96930.17;1827514;78;21342;-81
2021/10/02 01:54:09;;;;;;;12.18;10.00;;;;;;;10.44;77.97;96929.37;1827696;78;20973;-81
2021/10/02 01:56:35;;;;;;;9.85;7.22;;;;;;;10.32;77.85;96921.61;1827025;78;20925;-81
2021/10/02 01:59:00;;;;;;;9.38;7.80;;;;;;;10.25;78.32;96923.73;1827653;78;21277;-81
2021/10/02 02:01:26;;;;;;;9.20;7.15;;;;;;;10.15;78.18;96924.71;1827606;78;20992;-83
2021/10/02 02:03:55;;;;;;;8.53;7.35;;;;;;;10.10;78.17;96921.80;1827392;78;21047;-83
2021/10/02 02:06:19;;;;;;;9.85;6.42;;;;;;;10.07;78.83;96917.41;1827347;78;21020;-83
2021/10/02 02:08:45;;;;;;;7.92;6.03;;;;;;;10.00;78.78;96910.78;1827590;78;20989;-83
2021/10/02 02:11:11;;;;;;;5.35;4.40;;;;;;;9.97;78.95;96911.60;1827516;78;20941;-83
2021/10/02 02:13:37;;;;;;;10.20;7.40;;;;;;;9.93;79.95;96904.64;1827593;78;20952;-83
2021/10/02 02:16:03;;;;;;;8.98;7.35;;;;;;;9.92;79.60;96910.78;1827317;78;21297;-83
2021/10/02 02:18:29;;;;;;;9.10;6.70;;;;;;;9.91;79.76;96913.86;1827419;78;20961;-83
2021/10/02 02:20:59;;;;;;;8.03;6.90;;;;;;;9.95;80.00;96901.39;1827095;78;20977;-83
2021/10/02 02:23:25;;;;;;;7.20;6.00;;;;;;;9.91;80.09;96903.47;1798172;79;21368;-83
2021/10/02 02:25:56;;;;;;;9.43;7.08;;;;;;;9.93;80.45;96906.75;1772965;80;20952;-84
2021/10/02 02:28:22;;;;;;;8.05;5.65;;;;;;;9.95;80.54;96903.98;1803250;79;20920;-83
2021/10/02 02:30:48;;;;;;;8.83;6.85;;;;;;;9.99;80.67;96901.38;1808111;79;21302;-83
2021/10/02 02:33:17;;;;;;;7.33;6.20;;;;;;;10.01;80.64;96905.09;1808102;79;20964;-83
2021/10/02 02:35:45;;;;;;;9.48;6.17;;;;;;;10.04;81.00;96904.27;1806277;78;21012;-83
2021/10/02 02:38:10;;;;;;;5.95;4.97;;;;;;;10.05;81.43;96901.19;1781608;80;21009;-83
2021/10/02 02:40:37;;;;;;;6.50;5.05;;;;;;;10.03;81.38;96902.66;1781010;79;21022;-83
2021/10/02 02:43:03;;;;;;;5.53;4.37;;;;;;;10.03;81.57;96901.84;1802789;79;20959;-83
2021/10/02 02:45:28;;;;;;;6.87;5.08;;;;;;;10.02;81.42;96894.55;1797365;79;20931;-83
2021/10/02 02:48:14;;;;;;;7.67;6.17;;;;;;;10.01;81.52;96889.03;1822399;79;20945;-83
2021/10/02 02:51:08;;;;;;;7.83;7.03;;;;;;;10.01;81.45;96897.31;1822470;79;20981;-83
2021/10/02 02:53:53;;;;;;;7.70;6.10;;;;;;;9.96;81.64;96893.92;1822575;79;20937;-83
2021/10/02 02:56:34;;;;;;;6.78;6.03;;;;;;;9.88;82.18;96890.83;1818571;79;21028;-83
2021/10/02 02:59:03;;;;;;;5.60;4.97;;;;;;;9.84;82.12;96887.44;1822489;79;20913;-83
2021/10/02 03:01:29;;;;;;;8.10;4.72;;;;;;;9.79;82.04;96893.63;1822557;79;21319;-83
2021/10/02 03:03:55;;;;;;;7.65;6.55;;;;;;;9.77;82.15;96887.79;1822417;78;21107;-83
2021/10/02 03:06:21;;;;;;;7.80;6.72;;;;;;;9.83;82.29;96883.23;1822342;79;20970;-83
2021/10/02 03:08:51;;;;;;;7.28;6.58;;;;;;;9.86;82.33;96893.27;1822607;79;21383;-83
2021/10/02 03:11:21;;;;;;;7.03;5.33;;;;;;;9.85;82.78;96884.68;1824299;79;20944;-83
2021/10/02 03:13:51;;;;;;;6.42;5.37;;;;;;;9.85;83.09;96885.98;1822515;78;20933;-83
2021/10/02 03:16:19;;;;;;;6.05;5.45;;;;;;;9.81;82.96;96879.98;1822588;79;21040;-83
2021/10/02 03:18:47;;;;;;;6.97;6.17;;;;;;;9.80;82.88;96890.05;1822435;79;21384;-83
2021/10/02 03:21:13;;;;;;;8.20;6.95;;;;;;;9.83;83.36;96880.14;1822459;79;21398;-83
2021/10/02 03:23:39;;;;;;;9.65;8.68;;;;;;;9.81;82.97;96886.48;1822355;78;20949;-83
2021/10/02 03:26:05;;;;;;;10.20;8.73;;;;;;;9.78;82.88;96866.86;1822754;79;21283;-83
2021/10/02 03:28:31;;;;;;;10.08;8.15;;;;;;;9.73;83.18;96873.50;1822603;79;21001;-83
2021/10/02 03:30:57;;;;;;;9.35;7.40;;;;;;;9.74;83.46;96879.01;1822606;79;20987;-83
2021/10/02 03:33:23;;;;;;;7.75;6.72;;;;;;;9.81;83.36;96874.80;1823664;79;21416;-83
2021/10/02 03:35:49;;;;;;;10.25;8.38;;;;;;;9.84;83.37;96871.38;1794400;79;21020;-83
2021/10/02 03:38:15;;;;;;;10.55;9.40;;;;;;;9.86;83.19;96869.42;1824343;79;20960;-83
2021/10/02 03:40:41;;;;;;;11.05;9.60;;;;;;;9.89;82.93;96863.09;1805166;79;20956;-83
2021/10/02 03:43:07;;;;;;;11.68;10.03;;;;;;;9.91;82.98;96859.84;1784707;79;20958;-83
2021/10/02 03:45:36;;;;;;;10.95;9.45;;;;;;;9.91;82.86;96855.94;1775761;78;20995;-83
2021/10/02 03:48:00;;;;;;;13.20;9.15;;;;;;;9.89;82.79;96860.49;1775879;78;20967;-83
2021/10/02 03:50:26;;;;;;;9.13;8.23;;;;;;;9.92;82.87;96857.10;1799110;79;20940;-83
2021/10/02 03:52:52;;;;;;;9.75;7.53;;;;;;;9.92;82.74;96862.75;1776307;79;21334;-83
2021/10/02 03:55:18;;;;;;;11.00;9.20;;;;;;;9.92;82.96;96857.56;1793438;79;20960;-83
2021/10/02 03:57:43;;;;;;;13.72;9.58;;;;;;;9.91;82.84;96853.34;1804980;79;20969;-83
2021/10/02 04:00:10;;;;;;;10.68;9.08;;;;;;;9.91;83.14;96846.86;1775937;79;20931;-84
2021/10/02 04:02:36;;;;;;;11.33;9.03;;;;;;;9.87;82.95;96853.36;1775807;79;20955;-82
2021/10/02 04:05:02;;;;;;;10.08;7.58;;;;;;;9.87;83.05;96858.55;1784034;79;21340;-83
2021/10/02 04:07:28;;;;;;;8.78;7.37;;;;;;;9.82;83.04;96859.06;1790403;79;20935;-83
2021/10/02 04:09:53;;;;;;;12.43;8.38;;;;;;;9.79;83.12;96867.18;1779203;79;20967;-83
2021/10/02 04:12:19;;;;;;;9.50;7.08;;;;;;;9.75;83.47;96859.38;1808099;79;21346;-83
2021/10/02 04:14:47;;;;;;;9.25;8.35;;;;;;;9.74;83.85;96858.25;1787340;79;20931;-83
2021/10/02 04:17:13;;;;;;;11.33;8.90;;;;;;;9.75;84.29;96859.86;1789554;79;21402;-83
2021/10/02 04:19:39;;;;;;;13.43;10.88;;;;;;;9.76;84.39;96858.89;1775824;79;20975;-83
2021/10/02 04:22:06;;;;;;;14.93;12.85;;;;;;;9.77;84.24;96860.05;1780156;79;21417;-83
2021/10/02 04:24:31;;;;;;;15.48;11.53;;;;;;;9.84;84.15;96853.21;1808212;79;20936;-83
2021/10/02 04:26:58;;;;;;;13.78;10.98;;;;;;;10.04;84.46;96851.05;1785479;79;20967;-83
2021/10/02 04:29:26;;;;;;;15.50;10.93;;;;;;;10.18;84.22;96849.06;1808213;79;20988;-83
2021/10/02 04:31:52;;;;;;;14.20;12.85;;;;;;;10.30;83.68;96853.44;1790379;79;20977;-83
2021/10/02 04:34:18;;;;;;;13.78;11.93;;;;;;;10.39;83.28;96856.31;1773767;80;21039;-83
2021/10/02 04:36:44;;;;;;;14.50;11.97;;;;;;;10.46;82.89;96857.27;1805522;79;20882;-83
2021/10/02 04:39:10;;;;;;;13.40;12.00;;;;;;;10.47;83.21;96856.78;1802875;79;21249;-83
2021/10/02 04:41:35;;;;;;;12.50;11.08;;;;;;;10.44;83.39;96856.63;1798700;79;20935;-83
2021/10/02 04:44:01;;;;;;;15.78;11.75;;;;;;;10.45;83.20;96843.16;1773548;79;20982;-83
2021/10/02 04:46:27;;;;;;;14.18;12.68;;;;;;;10.61;83.09;96852.17;1773444;79;20993;-83
2021/10/02 04:48:52;;;;;;;15.43;12.78;;;;;;;10.83;82.85;96851.88;1797288;79;20992;-83
2021/10/02 04:51:18;;;;;;;15.58;14.03;;;;;;;11.00;82.38;96861.20;1773486;79;20919;-83
2021/10/02 04:53:44;;;;;;;15.20;13.60;;;;;;;11.14;81.56;96851.84;1792825;79;20940;-83
2021/10/02 04:56:12;;;;;;;17.82;12.90;;;;;;;11.27;81.04;96862.48;1797620;79;20916;-83
2021/10/02 04:58:38;;;;;;;14.53;11.60;;;;;;;11.41;81.26;96860.92;1773287;79;21369;-83
2021/10/02 05:01:06;;;;;;;15.25;12.55;;;;;;;11.46;80.77;96868.20;1794147;79;21005;-83
2021/10/02 05:03:34;;;;;;;16.00;13.03;;;;;;;11.50;80.36;96866.85;1779898;79;20984;-83
2021/10/02 05:06:02;;;;;;;19.15;13.08;;;;;;;11.50;80.80;96868.16;1792020;80;21016;-83
2021/10/02 05:08:28;;;;;;;14.90;12.28;;;;;;;11.46;81.26;96861.20;1773091;79;21035;-83
2021/10/02 05:10:54;;;;;;;15.05;11.60;;;;;;;11.38;81.05;96867.26;1767006;79;21003;-83
2021/10/02 05:13:20;;;;;;;15.30;12.85;;;;;;;11.38;80.53;96865.15;1782612;78;21001;-83
2021/10/02 05:15:45;;;;;;;16.23;13.38;;;;;;;11.47;80.25;96869.81;1827231;78;20932;-83
2021/10/02 05:18:11;;;;;;;19.05;13.93;;;;;;;11.50;80.26;96865.55;1827112;78;20905;-83
2021/10/02 05:20:37;;;;;;;18.07;15.53;;;;;;;11.55;79.91;96861.92;1827218;78;20949;-83
2021/10/02 05:23:03;;;;;;;16.23;12.68;;;;;;;11.63;79.77;96861.87;1826951;78;20975;-83
2021/10/02 05:25:29;;;;;;;15.25;12.25;;;;;;;11.73;79.22;96855.93;1826965;78;21304;-83
2021/10/02 05:27:55;;;;;;;14.95;12.68;;;;;;;11.87;79.14;96860.84;1827261;78;20937;-83
2021/10/02 05:30:21;;;;;;;15.72;13.18;;;;;;;11.97;79.01;96853.10;1827188;78;20997;-83
2021/10/02 05:32:47;;;;;;;18.52;14.33;;;;;;;12.04;77.94;96867.54;1827258;78;21017;-83
2021/10/02 05:35:13;;;;;;;17.48;15.60;;;;;;;12.13;77.94;96860.43;1826907;78;20946;-83
2021/10/02 05:37:38;;;;;;;20.80;15.98;;;;;;;12.17;77.87;96865.09;1827374;78;21331;-83
2021/10/02 05:40:05;;;;;;;14.55;11.57;;;;;;;12.22;77.59;96858.88;1827340;78;21333;-83
2021/10/02 05:42:31;;;;;;;16.45;13.68;;;;;;;12.28;77.58;96865.15;1827298;78;21328;-83
2021/10/02 05:44:57;;;;;;;15.13;13.45;;;;;;;12.32;77.19;96869.00;1827296;78;20917;-83
2021/10/02 05:47:22;;;;;;;16.23;14.05;;;;;;;12.38;77.17;96859.18;1827454;78;20962;-83
2021/10/02 05:49:48;;;;;;;15.78;14.18;;;;;;;12.38;77.69;96861.78;1824588;78;21287;-83
2021/10/02 05:52:14;;;;;;;15.85;12.80;;;;;;;12.36;77.36;96866.84;1787747;78;20900;-83
2021/10/02 05:54:41;;;;;;;14.98;11.63;;;;;;;12.37;76.08;96864.58;1775975;79;20906;-83
2021/10/02 05:57:06;;;;;;;14.98;13.25;;;;;;;12.43;76.38;96859.93;1790090;79;21005;-83
2021/10/02 05:59:32;;;;;;;19.60;15.80;;;;;;;12.50;75.43;96861.61;1784784;79;20987;-83
2021/10/02 06:01:58;;;;;;;27.02;18.42;;;;;;;12.55;75.95;96864.50;1798633;79;21538;-83
2021/10/02 06:04:24;;;;;;;29.82;21.00;;;;;;;12.56;76.01;96867.42;1776283;79;21003;-83
2021/10/02 06:06:49;;;;;;;19.60;16.65;;;;;;;12.57;75.96;96870.34;1776795;79;20999;-83
2021/10/02 06:09:15;;;;;;;23.42;14.83;;;;;;;12.59;75.49;96876.67;1798500;79;21390;-83
2021/10/02 06:11:41;;;;;;;15.35;12.20;;;;;;;12.59;75.61;96872.27;1776121;79;21034;-83
2021/10/02 06:14:06;;;;;;;17.10;11.95;;;;;;;12.63;76.46;96868.30;1799262;79;20995;-83
2021/10/02 06:16:34;;;;;;;19.30;13.48;;;;;;;12.60;76.14;96871.27;1788841;78;21304;-83
2021/10/02 06:19:00;;;;;;;19.57;15.20;;;;;;;12.58;75.53;96872.45;1794807;79;21354;-83
2021/10/02 06:21:26;;;;;;;18.48;15.38;;;;;;;12.61;75.85;96876.80;1775838;79;20982;-83
2021/10/02 06:23:58;;;;;;;15.93;14.07;;;;;;;12.64;75.51;96879.53;1775719;79;21027;-83
2021/10/02 06:26:21;;;;;;;17.35;14.60;;;;;;;12.66;75.49;96877.55;1786188;79;21332;-83
2021/10/02 06:28:46;;;;;;;38.88;25.20;;;;;;;12.68;75.70;96878.67;1807994;79;21017;-83
2021/10/02 06:31:12;;;;;;;15.98;12.37;;;;;;;12.70;75.42;96884.53;1784993;79;20907;-83
2021/10/02 06:33:38;;;;;;;15.03;12.03;;;;;;;12.73;75.70;96881.06;1807797;79;21989;-83
2021/10/02 06:36:04;;;;;;;22.10;15.72;;;;;;;12.74;76.08;96880.06;1807655;78;21038;-83
2021/10/02 06:38:29;;;;;;;19.85;14.40;;;;;;;12.78;74.75;96883.11;1779876;78;21003;-83
2021/10/02 06:40:55;;;;;;;18.20;13.98;;;;;;;12.87;74.89;96891.96;1783124;79;20974;-83
2021/10/02 06:43:21;;;;;;;16.77;14.30;;;;;;;12.92;74.91;96884.88;1807976;79;20967;-83
2021/10/02 06:45:46;;;;;;;23.42;17.48;;;;;;;12.93;74.79;96881.28;1783643;79;20994;-83
2021/10/02 06:48:12;;;;;;;27.42;18.30;;;;;;;12.95;74.95;96886.31;1796802;79;20947;-83
2021/10/02 06:50:38;;;;;;;18.05;14.28;;;;;;;12.95;74.83;96890.22;1796443;79;20974;-83
2021/10/02 06:53:04;;;;;;;15.05;13.00;;;;;;;12.98;73.91;96880.22;1780703;79;20934;-83
2021/10/02 06:55:30;;;;;;;40.55;21.90;;;;;;;13.04;74.66;96891.74;1784089;79;20910;-83
2021/10/02 06:57:56;;;;;;;17.92;13.80;;;;;;;13.08;74.09;96891.18;1784644;80;20947;-83
2021/10/02 07:00:22;;;;;;;22.62;16.42;;;;;;;13.14;74.39;96887.82;1824431;78;20925;-83
2021/10/02 07:02:47;;;;;;;16.93;13.85;;;;;;;13.16;74.37;96901.48;1824166;79;20941;-83
2021/10/02 07:05:15;;;;;;;16.05;14.35;;;;;;;13.19;74.03;96899.87;1824200;79;21028;-83
2021/10/02 07:07:41;;;;;;;18.92;12.43;;;;;;;13.21;73.65;96891.35;1824156;79;21033;-83
2021/10/02 07:10:08;;;;;;;12.98;10.20;;;;;;;13.23;73.73;96895.58;1824267;79;21075;-83
2021/10/02 07:12:35;;;;;;;14.40;12.18;;;;;;;13.25;73.17;96880.04;1824148;79;20981;-83
2021/10/02 07:15:03;;;;;;;13.68;12.15;;;;;;;13.32;73.10;96890.03;1824281;79;21303;-83
2021/10/02 07:17:29;;;;;;;13.62;12.23;;;;;;;13.38;73.19;96891.11;1824116;79;21323;-84
2021/10/02 07:19:55;;;;;;;14.15;11.93;;;;;;;13.44;72.95;96885.94;1824302;79;20996;-83
2021/10/02 07:22:21;;;;;;;14.38;12.88;;;;;;;13.48;71.98;96881.95;1823914;79;21064;-84
2021/10/02 07:24:48;;;;;;;14.45;12.85;;;;;;;13.54;72.49;96886.13;1824376;79;21341;-83
2021/10/02 07:27:13;;;;;;;13.98;12.25;;;;;;;13.56;72.91;96889.36;1824303;79;20975;-84
2021/10/02 07:29:39;;;;;;;14.05;12.65;;;;;;;13.57;72.55;96901.42;1824083;79;21016;-83
2021/10/02 07:32:05;;;;;;;13.05;10.72;;;;;;;13.59;73.20;96893.70;1824381;79;20936;-83
2021/10/02 07:34:31;;;;;;;14.03;11.22;;;;;;;13.63;72.82;96903.27;1824127;79;20984;-83
2021/10/02 07:36:57;;;;;;;12.20;10.10;;;;;;;13.68;72.20;96889.17;1824336;79;20938;-83
2021/10/02 07:39:23;;;;;;;14.13;12.23;;;;;;;13.73;71.82;96891.52;1824254;79;20925;-83
2021/10/02 07:41:49;;;;;;;14.28;11.60;;;;;;;13.78;72.16;96894.86;1824243;79;20981;-84
2021/10/02 07:44:23;;;;;;;12.78;11.48;;;;;;;13.81;71.33;96887.95;1824306;79;20973;-83
2021/10/02 07:46:52;;;;;;;12.93;11.45;;;;;;;13.84;71.58;96898.04;1802817;79;20920;-83
2021/10/02 07:49:19;;;;;;;13.00;10.55;;;;;;;13.89;70.58;96887.82;1824680;78;20911;-83
2021/10/02 07:51:46;;;;;;;11.48;10.18;;;;;;;13.94;71.22;96897.19;1793619;79;20946;-83
2021/10/02 07:54:12;;;;;;;10.00;8.73;;;;;;;13.98;70.58;96888.47;1790438;80;20973;-84
2021/10/02 07:56:38;;;;;;;13.00;10.23;;;;;;;14.04;70.59;96902.09;1768846;79;21342;-83
2021/10/02 07:59:06;;;;;;;12.05;10.40;;;;;;;14.10;70.58;96900.82;1777251;79;21304;-83
2021/10/02 08:01:32;;;;;;;13.62;11.22;;;;;;;14.18;70.37;96897.77;1773521;79;21401;-84
2021/10/02 08:03:57;;;;;;;12.20;11.00;;;;;;;14.22;69.45;96885.42;1787113;80;20991;-84
2021/10/02 08:06:24;;;;;;;11.65;10.38;;;;;;;14.28;70.27;96892.98;1764217;79;21042;-83
2021/10/02 08:08:51;;;;;;;12.00;10.80;;;;;;;14.33;70.14;96896.66;1764393;79;21018;-83
2021/10/02 08:11:17;;;;;;;11.53;10.23;;;;;;;14.38;69.79;96892.96;1764399;79;20963;-84
2021/10/02 08:13:42;;;;;;;11.50;9.80;;;;;;;14.44;69.57;96899.75;1806915;79;21018;-83
2021/10/02 08:16:08;;;;;;;11.78;10.45;;;;;;;14.48;69.54;96898.35;1772518;79;21010;-84
2021/10/02 08:18:38;;;;;;;10.98;9.78;;;;;;;14.52;69.66;96904.33;1769932;80;21338;-83
2021/10/02 08:21:06;;;;;;;11.00;9.45;;;;;;;14.56;69.68;96909.97;1772988;80;21002;-84
2021/10/02 08:23:37;;;;;;;9.58;8.53;;;;;;;14.60;68.26;96905.46;1785636;79;21385;-84
2021/10/02 08:26:05;;;;;;;10.15;9.00;;;;;;;14.69;68.43;96908.23;1775768;78;21015;-84
2021/10/02 08:28:32;;;;;;;13.15;10.25;;;;;;;14.78;67.77;96911.98;1792120;79;21018;-84
2021/10/02 08:31:00;;;;;;;14.63;11.10;;;;;;;14.84;68.27;96906.80;1794490;78;20951;-83
2021/10/02 08:33:26;;;;;;;11.57;9.73;;;;;;;14.88;67.87;96909.81;1807402;79;20969;-83
2021/10/02 08:35:51;;;;;;;10.08;8.38;;;;;;;14.92;67.38;96910.53;1807480;79;20977;-84
2021/10/02 08:38:18;;;;;;;11.12;9.95;;;;;;;14.98;66.88;96912.88;1782529;78;21417;-84
2021/10/02 08:40:43;;;;;;;14.40;9.85;;;;;;;15.03;66.93;96916.22;1798273;79;20948;-84
2021/10/02 08:43:11;;;;;;;11.25;9.55;;;;;;;15.09;66.20;96907.06;1791890;79;21014;-83
2021/10/02 08:45:37;;;;;;;11.38;9.78;;;;;;;15.14;66.88;96911.22;1802991;79;20951;-84
2021/10/02 08:48:04;;;;;;;13.55;9.03;;;;;;;15.18;66.95;96907.70;1785985;78;21342;-84
2021/10/02 08:50:29;;;;;;;11.93;8.15;;;;;;;15.22;66.92;96912.84;1785955;79;20986;-84
2021/10/02 08:52:56;;;;;;;8.83;7.67;;;;;;;15.24;65.31;96912.14;1799199;78;20976;-84
2021/10/02 08:55:22;;;;;;;10.55;9.40;;;;;;;15.25;65.40;96913.25;1794174;79;20995;-84
2021/10/02 08:57:49;;;;;;;8.83;7.90;;;;;;;15.30;65.20;96919.22;1809559;78;20949;-83
2021/10/02 09:00:21;;;;;;;9.15;7.58;;;;;;;15.34;65.18;96906.53;1824254;78;21359;-84
2021/10/02 09:02:47;;;;;;;10.93;8.83;;;;;;;15.37;65.20;96912.67;1824212;78;20957;-83
2021/10/02 09:05:13;;;;;;;10.10;9.08;;;;;;;15.41;64.43;96917.31;1824109;78;20929;-84
2021/10/02 09:07:39;;;;;;;9.90;8.70;;;;;;;15.43;63.92;96919.22;1824069;78;21304;-83
2021/10/02 09:10:08;;;;;;;8.98;8.03;;;;;;;15.46;63.77;96925.40;1824081;78;20933;-83
2021/10/02 09:12:34;;;;;;;9.90;8.75;;;;;;;15.49;63.44;96914.52;1824179;78;20905;-84
2021/10/02 09:15:02;;;;;;;11.70;9.00;;;;;;;15.53;63.90;96918.34;1824226;78;20941;-83
2021/10/02 09:17:28;;;;;;;10.70;8.68;;;;;;;15.56;64.30;96914.01;1797094;79;21013;-84
2021/10/02 09:19:53;;;;;;;10.48;9.10;;;;;;;15.61;65.16;96918.67;1824198;78;21415;-84
2021/10/02 09:22:21;;;;;;;8.80;7.90;;;;;;;15.65;64.35;96923.03;1824068;78;21024;-83
2021/10/02 09:24:47;;;;;;;10.98;8.70;;;;;;;15.70;64.11;96914.06;1824248;78;21415;-84
2021/10/02 09:27:23;;;;;;;10.30;7.83;;;;;;;15.75;64.07;96916.88;1823941;78;21004;-84
2021/10/02 09:30:10;;;;;;;11.35;9.25;;;;;;;15.82;64.02;96913.27;1824417;78;20937;-84
2021/10/02 09:32:43;;;;;;;10.50;8.60;;;;;;;15.87;63.79;96901.66;1824385;78;21335;-84
2021/10/02 09:35:15;;;;;;;11.53;8.48;;;;;;;15.90;63.40;96905.19;1801623;78;21012;-84
2021/10/02 09:37:43;;;;;;;10.30;9.03;;;;;;;15.96;64.24;96908.83;1797800;80;21001;-84
2021/10/02 09:40:17;;;;;;;10.10;8.75;;;;;;;16.01;62.58;96909.02;1797867;78;21032;-84
2021/10/02 09:42:49;;;;;;;10.13;9.03;;;;;;;16.06;63.02;96910.52;1797858;80;20980;-84
2021/10/02 09:45:22;;;;;;;10.35;7.90;;;;;;;16.13;63.04;96915.77;1797773;78;21356;-84
2021/10/02 09:47:52;;;;;;;9.68;8.68;;;;;;;16.19;62.07;96905.77;1796102;78;20953;-84
2021/10/02 09:50:31;;;;;;;13.68;9.18;;;;;;;16.24;62.51;96907.27;1796460;80;21300;-83
2021/10/02 09:53:10;;;;;;;9.70;8.70;;;;;;;16.29;63.04;96909.30;1787436;80;20979;-84
2021/10/02 09:55:39;;;;;;;10.18;9.03;;;;;;;16.33;62.68;96898.19;1789339;78;21067;-84
2021/10/02 09:58:32;;;;;;;9.53;8.53;;;;;;;16.39;61.10;96900.48;1797897;80;21411;-84
2021/10/02 10:00:59;;;;;;;8.65;7.65;;;;;;;16.45;62.39;96902.31;1797748;78;21083;-84
2021/10/02 10:03:24;;;;;;;9.88;8.85;;;;;;;16.51;61.07;96903.59;1788286;80;21012;-84
2021/10/02 10:05:52;;;;;;;9.03;8.05;;;;;;;16.56;60.49;96899.03;1771135;80;21053;-84
2021/10/02 10:08:22;;;;;;;12.33;9.15;;;;;;;16.60;60.94;96907.31;1750523;81;20984;-84
2021/10/02 10:10:48;;;;;;;11.22;9.38;;;;;;;16.65;60.49;96899.63;1772942;79;20954;-84
2021/10/02 10:13:19;;;;;;;10.78;8.60;;;;;;;16.70;60.90;96901.94;1751280;79;20986;-84
2021/10/02 10:15:49;;;;;;;11.30;8.65;;;;;;;16.75;61.06;96900.00;1763258;81;21029;-84
2021/10/02 10:18:28;;;;;;;11.00;8.25;;;;;;;16.79;60.03;96905.95;1760827;81;20920;-84
2021/10/02 10:20:58;;;;;;;10.20;8.30;;;;;;;16.83;59.68;96902.41;1744740;81;21008;-84
2021/10/02 10:23:37;;;;;;;11.83;9.30;;;;;;;16.90;60.31;96897.12;1754056;79;20946;-84
2021/10/02 10:26:10;;;;;;;8.83;7.85;;;;;;;16.96;58.66;96899.73;1773531;79;20934;-84
2021/10/02 10:28:42;;;;;;;8.93;7.95;;;;;;;17.01;59.37;96901.72;1763468;81;21481;-84
2021/10/02 10:31:17;;;;;;;11.53;9.80;;;;;;;17.06;59.98;96889.56;1742335;81;21470;-84
2021/10/02 10:33:47;;;;;;;12.40;9.50;;;;;;;17.13;60.42;96892.17;1750018;78;21087;-84
2021/10/02 10:36:14;;;;;;;12.30;8.88;;;;;;;17.21;60.89;96897.16;1766408;80;21126;-84
2021/10/02 10:38:41;;;;;;;11.65;9.08;;;;;;;17.27;60.62;96897.66;1786402;79;20976;-84
2021/10/02 10:41:07;;;;;;;12.63;9.98;;;;;;;17.31;60.97;96893.58;1800471;79;21393;-84
2021/10/02 10:43:34;;;;;;;10.55;9.28;;;;;;;17.33;59.40;96900.73;1773454;79;20947;-84
2021/10/02 10:46:03;;;;;;;9.80;8.05;;;;;;;17.38;59.77;96901.41;1773657;79;21354;-84
2021/10/02 10:48:29;;;;;;;9.40;8.45;;;;;;;17.45;59.28;96893.50;1782246;79;20966;-84
2021/10/02 10:51:01;;;;;;;11.73;9.38;;;;;;;17.54;59.90;96898.78;1788070;79;20937;-84
2021/10/02 10:53:36;;;;;;;11.93;8.80;;;;;;;17.58;59.96;96892.11;1804605;79;20960;-84
2021/10/02 10:56:02;;;;;;;11.00;9.88;;;;;;;17.60;59.22;96884.81;1792583;79;21334;-84
2021/10/02 10:58:30;;;;;;;10.68;9.58;;;;;;;17.66;59.39;96882.63;1790806;79;20948;-84
2021/10/02 11:00:56;;;;;;;12.28;10.10;;;;;;;17.67;58.05;96882.41;1802792;79;20925;-84
2021/10/02 11:03:46;;;;;;;11.00;9.90;;;;;;;17.72;57.97;96882.30;1789761;79;20943;-84
2021/10/02 11:06:15;;;;;;;12.93;10.35;;;;;;;17.76;58.54;96877.74;1799950;79;21000;-84
2021/10/02 11:09:07;;;;;;;10.23;8.68;;;;;;;17.85;58.70;96878.27;1788699;79;20952;-84
2021/10/02 11:11:53;;;;;;;10.43;8.75;;;;;;;17.89;58.22;96871.55;1778280;79;21409;-84
2021/10/02 11:14:22;;;;;;;10.13;9.05;;;;;;;17.91;57.77;96869.53;1786906;79;20998;-84
2021/10/02 11:16:51;;;;;;;10.63;8.13;;;;;;;17.95;58.11;96872.81;1798745;79;21026;-84
2021/10/02 11:19:38;;;;;;;8.48;7.67;;;;;;;17.96;58.33;96865.73;1803161;79;20947;-84
2021/10/02 11:22:35;;;;;;;12.05;9.38;;;;;;;18.01;57.89;96863.25;1782513;79;20959;-84
2021/10/02 11:24:58;;;;;;;9.18;8.00;;;;;;;17.98;57.55;96865.81;1756069;78;20944;-84
2021/10/02 11:27:26;;;;;;;9.70;7.28;;;;;;;18.00;57.27;96861.13;1783339;79;21003;-84
2021/10/02 11:29:52;;;;;;;9.13;7.60;;;;;;;18.04;57.28;96862.81;1776118;79;21023;-84
2021/10/02 11:32:30;;;;;;;9.20;7.70;;;;;;;18.07;56.92;96867.66;1776115;79;20919;-84
2021/10/02 11:35:19;;;;;;;8.73;7.85;;;;;;;18.10;56.31;96865.91;1777554;79;21027;-84
2021/10/02 11:37:59;;;;;;;9.10;7.67;;;;;;;18.11;56.12;96867.52;1797718;80;21014;-84
2021/10/02 11:40:45;;;;;;;9.05;7.35;;;;;;;18.18;57.39;96862.18;1797740;80;20998;-84
2021/10/02 11:43:21;;;;;;;9.43;7.97;;;;;;;18.27;56.36;96870.09;1797712;80;21058;-84
2021/10/02 11:45:54;;;;;;;8.43;7.42;;;;;;;18.35;57.10;96867.67;1797690;79;21026;-84
2021/10/02 11:48:25;;;;;;;9.73;7.25;;;;;;;18.38;56.86;96868.03;1797816;80;20915;-84
2021/10/02 11:51:15;;;;;;;8.08;7.35;;;;;;;18.37;55.48;96872.20;1793272;80;20916;-84
2021/10/02 11:53:47;;;;;;;8.23;7.05;;;;;;;18.35;56.31;96869.79;1797869;80;21378;-84
2021/10/02 11:56:21;;;;;;;9.35;7.70;;;;;;;18.41;56.88;96862.87;1797721;80;21003;-84
2021/10/02 11:58:49;;;;;;;8.43;7.15;;;;;;;18.44;55.82;96866.38;1797806;80;20954;-84
2021/10/02 12:01:24;;;;;;;10.05;7.62;;;;;;;18.49;54.54;96855.98;1797742;80;21025;-84
2021/10/02 12:04:10;;;;;;;9.58;7.50;;;;;;;18.51;55.52;96864.45;1797941;80;20995;-84
2021/10/02 12:06:39;;;;;;;11.85;7.10;;;;;;;18.54;55.62;96866.64;1797195;80;21050;-84
2021/10/02 12:09:14;;;;;;;7.72;7.03;;;;;;;18.60;56.09;96864.47;1797897;80;20943;-85
2021/10/02 12:11:43;;;;;;;8.68;7.22;;;;;;;18.67;55.63;96861.77;1797207;80;20950;-84
2021/10/02 12:14:12;;;;;;;8.20;7.08;;;;;;;18.67;55.09;96851.25;1797738;80;21034;-85
2021/10/02 12:16:37;;;;;;;9.78;6.78;;;;;;;18.68;55.30;96853.66;1797293;80;20934;-84
2021/10/02 12:19:09;;;;;;;9.60;7.12;;;;;;;18.71;55.12;96861.14;1797841;80;20999;-84
2021/10/02 12:21:49;;;;;;;7.55;6.80;;;;;;;18.71;54.67;96858.50;1797887;80;21007;-84
2021/10/02 12:24:27;;;;;;;10.13;6.55;;;;;;;18.75;54.65;96853.59;1798040;80;20954;-84
2021/10/02 12:27:06;;;;;;;9.33;6.95;;;;;;;18.77;54.56;96852.86;1797578;80;21035;-84
2021/10/02 12:29:40;;;;;;;7.90;5.80;;;;;;;18.78;54.60;96851.31;1797191;80;20931;-84
2021/10/02 12:32:13;;;;;;;8.10;5.78;;;;;;;18.76;54.26;96849.42;1796407;80;20943;-84
2021/10/02 12:34:45;;;;;;;9.85;7.92;;;;;;;18.76;54.25;96851.25;1792193;79;21497;-84